sensor_id;sensor_type;location;lat;lon;timestamp;temperature;humidity
19214;DHT22;9741;51.020;5.304;2024-02-28T00:01:15;1.60;74.20
19214;DHT22;9741;51.020;5.304;2024-02-28T00:03:44;1.70;74.50
19214;DHT22;9741;51.020;5.304;2024-02-28T00:06:11;1.80;74.60
19214;DHT22;9741;51.020;5.304;2024-02-28T00:08:38;1.90;74.80
19214;DHT22;9741;51.020;5.304;2024-02-28T00:11:05;2.00;74.80
19214;DHT22;9741;51.020;5.304;2024-02-28T00:13:32;2.00;74.90
19214;DHT22;9741;51.020;5.304;2024-02-28T00:15:58;2.10;74.90
19214;DHT22;9741;51.020;5.304;2024-02-28T00:18:25;2.10;74.90
19214;DHT22;9741;51.020;5.304;2024-02-28T00:20:54;2.20;75.00
19214;DHT22;9741;51.020;5.304;2024-02-28T00:23:21;2.20;75.00
19214;DHT22;9741;51.020;5.304;2024-02-28T00:25:47;2.20;75.00
19214;DHT22;9741;51.020;5.304;2024-02-28T00:28:14;2.30;75.00
19214;DHT22;9741;51.020;5.304;2024-02-28T00:30:41;2.30;74.90
19214;DHT22;9741;51.020;5.304;2024-02-28T00:33:08;2.20;74.70
19214;DHT22;9741;51.020;5.304;2024-02-28T00:35:35;2.20;74.70
19214;DHT22;9741;51.020;5.304;2024-02-28T00:38:04;2.30;74.80
19214;DHT22;9741;51.020;5.304;2024-02-28T00:40:31;2.20;74.70
19214;DHT22;9741;51.020;5.304;2024-02-28T00:42:58;2.20;74.70
19214;DHT22;9741;51.020;5.304;2024-02-28T00:45:25;2.20;74.70
19214;DHT22;9741;51.020;5.304;2024-02-28T00:47:52;2.20;74.80
19214;DHT22;9741;51.020;5.304;2024-02-28T00:50:20;2.20;74.90
19214;DHT22;9741;51.020;5.304;2024-02-28T00:52:47;2.30;75.10
19214;DHT22;9741;51.020;5.304;2024-02-28T00:55:15;2.30;75.10
19214;DHT22;9741;51.020;5.304;2024-02-28T00:57:44;2.30;75.20
19214;DHT22;9741;51.020;5.304;2024-02-28T01:00:11;2.30;75.80
19214;DHT22;9741;51.020;5.304;2024-02-28T01:02:39;2.40;75.30
19214;DHT22;9741;51.020;5.304;2024-02-28T01:05:07;2.40;75.30
19214;DHT22;9741;51.020;5.304;2024-02-28T01:07:34;2.40;75.20
19214;DHT22;9741;51.020;5.304;2024-02-28T01:10:01;2.30;74.90
19214;DHT22;9741;51.020;5.304;2024-02-28T01:12:30;2.40;75.10
19214;DHT22;9741;51.020;5.304;2024-02-28T01:14:57;2.40;75.30
19214;DHT22;9741;51.020;5.304;2024-02-28T01:17:23;2.40;75.40
19214;DHT22;9741;51.020;5.304;2024-02-28T01:19:50;2.40;75.40
19214;DHT22;9741;51.020;5.304;2024-02-28T01:22:18;2.50;75.50
19214;DHT22;9741;51.020;5.304;2024-02-28T01:24:44;2.50;75.60
19214;DHT22;9741;51.020;5.304;2024-02-28T01:27:11;2.50;75.60
19214;DHT22;9741;51.020;5.304;2024-02-28T01:29:40;2.60;75.70
19214;DHT22;9741;51.020;5.304;2024-02-28T01:32:07;2.60;75.60
19214;DHT22;9741;51.020;5.304;2024-02-28T01:34:33;2.60;75.60
19214;DHT22;9741;51.020;5.304;2024-02-28T01:37:00;2.60;75.60
19214;DHT22;9741;51.020;5.304;2024-02-28T01:39:29;2.60;75.70
19214;DHT22;9741;51.020;5.304;2024-02-28T01:41:56;2.70;75.80
19214;DHT22;9741;51.020;5.304;2024-02-28T01:44:23;2.70;75.70
19214;DHT22;9741;51.020;5.304;2024-02-28T01:46:52;2.70;75.70
19214;DHT22;9741;51.020;5.304;2024-02-28T01:49:20;2.70;75.60
19214;DHT22;9741;51.020;5.304;2024-02-28T01:51:47;2.70;75.60
19214;DHT22;9741;51.020;5.304;2024-02-28T01:54:15;2.70;75.60
19214;DHT22;9741;51.020;5.304;2024-02-28T01:56:42;2.70;75.50
19214;DHT22;9741;51.020;5.304;2024-02-28T01:59:10;2.70;75.50
19214;DHT22;9741;51.020;5.304;2024-02-28T02:01:37;2.70;75.40
19214;DHT22;9741;51.020;5.304;2024-02-28T02:04:06;2.70;75.40
19214;DHT22;9741;51.020;5.304;2024-02-28T02:06:33;2.70;75.40
19214;DHT22;9741;51.020;5.304;2024-02-28T02:09:03;2.70;75.30
19214;DHT22;9741;51.020;5.304;2024-02-28T02:11:30;2.60;75.20
19214;DHT22;9741;51.020;5.304;2024-02-28T02:13:58;2.60;75.30
19214;DHT22;9741;51.020;5.304;2024-02-28T02:16:24;2.60;75.30
19214;DHT22;9741;51.020;5.304;2024-02-28T02:18:52;2.60;75.40
19214;DHT22;9741;51.020;5.304;2024-02-28T02:21:24;2.60;75.30
19214;DHT22;9741;51.020;5.304;2024-02-28T02:23:52;2.60;75.30
19214;DHT22;9741;51.020;5.304;2024-02-28T02:26:19;2.50;75.20
19214;DHT22;9741;51.020;5.304;2024-02-28T02:28:46;2.60;75.30
19214;DHT22;9741;51.020;5.304;2024-02-28T02:31:13;2.50;75.30
19214;DHT22;9741;51.020;5.304;2024-02-28T02:33:40;2.50;75.20
19214;DHT22;9741;51.020;5.304;2024-02-28T02:36:07;2.50;75.20
19214;DHT22;9741;51.020;5.304;2024-02-28T02:38:34;2.50;75.20
19214;DHT22;9741;51.020;5.304;2024-02-28T02:41:05;2.50;75.20
19214;DHT22;9741;51.020;5.304;2024-02-28T02:43:31;2.50;75.20
19214;DHT22;9741;51.020;5.304;2024-02-28T02:45:58;2.40;75.10
19214;DHT22;9741;51.020;5.304;2024-02-28T02:48:25;2.40;75.20
19214;DHT22;9741;51.020;5.304;2024-02-28T02:50:52;2.40;75.10
19214;DHT22;9741;51.020;5.304;2024-02-28T02:53:19;2.50;75.20
19214;DHT22;9741;51.020;5.304;2024-02-28T02:55:46;2.40;75.20
19214;DHT22;9741;51.020;5.304;2024-02-28T02:58:15;2.40;75.10
19214;DHT22;9741;51.020;5.304;2024-02-28T03:00:41;2.40;75.20
19214;DHT22;9741;51.020;5.304;2024-02-28T03:03:08;2.40;75.20
19214;DHT22;9741;51.020;5.304;2024-02-28T03:05:35;2.40;75.20
19214;DHT22;9741;51.020;5.304;2024-02-28T03:08:05;2.40;75.10
19214;DHT22;9741;51.020;5.304;2024-02-28T03:10:32;2.40;75.20
19214;DHT22;9741;51.020;5.304;2024-02-28T03:12:59;2.30;75.10
19214;DHT22;9741;51.020;5.304;2024-02-28T03:15:28;2.30;75.10
19214;DHT22;9741;51.020;5.304;2024-02-28T03:17:55;2.30;75.20
19214;DHT22;9741;51.020;5.304;2024-02-28T03:20:22;2.30;75.20
19214;DHT22;9741;51.020;5.304;2024-02-28T03:22:49;2.30;75.20
19214;DHT22;9741;51.020;5.304;2024-02-28T03:25:16;2.30;75.20
19214;DHT22;9741;51.020;5.304;2024-02-28T03:27:43;2.30;75.10
19214;DHT22;9741;51.020;5.304;2024-02-28T03:30:10;2.30;75.10
19214;DHT22;9741;51.020;5.304;2024-02-28T03:32:39;2.20;75.10
19214;DHT22;9741;51.020;5.304;2024-02-28T03:35:06;2.20;75.10
19214;DHT22;9741;51.020;5.304;2024-02-28T03:37:34;2.30;75.20
19214;DHT22;9741;51.020;5.304;2024-02-28T03:40:01;2.30;75.10
19214;DHT22;9741;51.020;5.304;2024-02-28T03:42:28;2.20;75.00
19214;DHT22;9741;51.020;5.304;2024-02-28T03:44:55;2.20;75.00
19214;DHT22;9741;51.020;5.304;2024-02-28T03:47:22;2.10;74.90
19214;DHT22;9741;51.020;5.304;2024-02-28T03:49:51;2.10;75.00
19214;DHT22;9741;51.020;5.304;2024-02-28T03:52:18;2.10;75.00
19214;DHT22;9741;51.020;5.304;2024-02-28T03:54:45;2.10;75.00
19214;DHT22;9741;51.020;5.304;2024-02-28T03:57:12;2.10;74.90
19214;DHT22;9741;51.020;5.304;2024-02-28T03:59:40;2.10;75.00
19214;DHT22;9741;51.020;5.304;2024-02-28T04:02:07;2.10;75.00
19214;DHT22;9741;51.020;5.304;2024-02-28T04:04:34;2.10;74.90
19214;DHT22;9741;51.020;5.304;2024-02-28T04:07:03;2.00;74.80
19214;DHT22;9741;51.020;5.304;2024-02-28T04:09:30;2.00;74.80
19214;DHT22;9741;51.020;5.304;2024-02-28T04:11:57;2.00;74.80
19214;DHT22;9741;51.020;5.304;2024-02-28T04:14:23;2.00;74.90
19214;DHT22;9741;51.020;5.304;2024-02-28T04:16:50;1.90;74.90
19214;DHT22;9741;51.020;5.304;2024-02-28T04:19:17;1.90;74.90
19214;DHT22;9741;51.020;5.304;2024-02-28T04:21:44;1.90;75.00
19214;DHT22;9741;51.020;5.304;2024-02-28T04:24:12;1.90;75.00
19214;DHT22;9741;51.020;5.304;2024-02-28T04:26:39;1.90;75.00
19214;DHT22;9741;51.020;5.304;2024-02-28T04:29:06;1.90;75.00
19214;DHT22;9741;51.020;5.304;2024-02-28T04:31:39;1.80;74.80
19214;DHT22;9741;51.020;5.304;2024-02-28T04:34:06;1.80;74.90
19214;DHT22;9741;51.020;5.304;2024-02-28T04:36:33;1.80;74.90
19214;DHT22;9741;51.020;5.304;2024-02-28T04:39:00;1.70;74.80
19214;DHT22;9741;51.020;5.304;2024-02-28T04:41:32;1.70;74.80
19214;DHT22;9741;51.020;5.304;2024-02-28T04:43:59;1.70;74.80
19214;DHT22;9741;51.020;5.304;2024-02-28T04:46:26;1.70;74.80
19214;DHT22;9741;51.020;5.304;2024-02-28T04:48:53;1.70;74.80
19214;DHT22;9741;51.020;5.304;2024-02-28T04:51:20;1.70;74.80
19214;DHT22;9741;51.020;5.304;2024-02-28T04:53:47;1.70;74.90
19214;DHT22;9741;51.020;5.304;2024-02-28T04:56:14;1.70;74.80
19214;DHT22;9741;51.020;5.304;2024-02-28T04:58:43;1.60;74.70
19214;DHT22;9741;51.020;5.304;2024-02-28T05:01:09;1.60;74.70
19214;DHT22;9741;51.020;5.304;2024-02-28T05:03:37;1.60;74.70
19214;DHT22;9741;51.020;5.304;2024-02-28T05:06:04;1.60;74.60
19214;DHT22;9741;51.020;5.304;2024-02-28T05:08:31;1.60;74.60
19214;DHT22;9741;51.020;5.304;2024-02-28T05:10:58;1.60;74.70
19214;DHT22;9741;51.020;5.304;2024-02-28T05:13:25;1.60;74.70
19214;DHT22;9741;51.020;5.304;2024-02-28T05:15:53;1.60;74.80
19214;DHT22;9741;51.020;5.304;2024-02-28T05:18:20;1.60;74.80
19214;DHT22;9741;51.020;5.304;2024-02-28T05:20:48;1.60;74.90
19214;DHT22;9741;51.020;5.304;2024-02-28T05:23:14;1.60;74.90
19214;DHT22;9741;51.020;5.304;2024-02-28T05:25:41;1.60;74.90
19214;DHT22;9741;51.020;5.304;2024-02-28T05:28:08;1.60;75.00
19214;DHT22;9741;51.020;5.304;2024-02-28T05:30:35;1.60;75.10
19214;DHT22;9741;51.020;5.304;2024-02-28T05:33:04;1.60;75.10
19214;DHT22;9741;51.020;5.304;2024-02-28T05:35:32;1.60;75.10
19214;DHT22;9741;51.020;5.304;2024-02-28T05:37:58;1.60;75.10
19214;DHT22;9741;51.020;5.304;2024-02-28T05:40:25;1.70;75.30
19214;DHT22;9741;51.020;5.304;2024-02-28T05:42:52;1.70;75.20
19214;DHT22;9741;51.020;5.304;2024-02-28T05:45:19;1.70;75.20
19214;DHT22;9741;51.020;5.304;2024-02-28T05:47:46;1.70;75.30
19214;DHT22;9741;51.020;5.304;2024-02-28T05:50:14;1.70;75.30
19214;DHT22;9741;51.020;5.304;2024-02-28T05:52:45;1.70;75.30
19214;DHT22;9741;51.020;5.304;2024-02-28T05:55:12;1.80;75.50
19214;DHT22;9741;51.020;5.304;2024-02-28T05:57:39;1.80;75.40
19214;DHT22;9741;51.020;5.304;2024-02-28T06:00:07;1.80;75.50
19214;DHT22;9741;51.020;5.304;2024-02-28T06:02:35;1.80;75.40
19214;DHT22;9741;51.020;5.304;2024-02-28T06:05:03;1.80;75.40
19214;DHT22;9741;51.020;5.304;2024-02-28T06:07:32;1.80;75.50
19214;DHT22;9741;51.020;5.304;2024-02-28T06:09:59;1.90;75.50
19214;DHT22;9741;51.020;5.304;2024-02-28T06:12:26;1.90;75.40
19214;DHT22;9741;51.020;5.304;2024-02-28T06:14:53;1.90;75.50
19214;DHT22;9741;51.020;5.304;2024-02-28T06:17:20;1.90;75.50
19214;DHT22;9741;51.020;5.304;2024-02-28T06:19:47;1.90;75.50
19214;DHT22;9741;51.020;5.304;2024-02-28T06:22:14;1.90;75.40
19214;DHT22;9741;51.020;5.304;2024-02-28T06:24:45;1.90;75.40
19214;DHT22;9741;51.020;5.304;2024-02-28T06:27:12;1.90;75.40
19214;DHT22;9741;51.020;5.304;2024-02-28T06:29:39;1.90;75.40
19214;DHT22;9741;51.020;5.304;2024-02-28T06:32:06;1.90;75.30
19214;DHT22;9741;51.020;5.304;2024-02-28T06:34:33;1.90;75.30
19214;DHT22;9741;51.020;5.304;2024-02-28T06:37:00;1.90;75.30
19214;DHT22;9741;51.020;5.304;2024-02-28T06:39:27;1.90;75.30
19214;DHT22;9741;51.020;5.304;2024-02-28T06:41:55;1.90;75.30
19214;DHT22;9741;51.020;5.304;2024-02-28T06:44:22;1.90;75.30
19214;DHT22;9741;51.020;5.304;2024-02-28T06:46:49;1.90;75.30
19214;DHT22;9741;51.020;5.304;2024-02-28T06:49:16;1.90;75.30
19214;DHT22;9741;51.020;5.304;2024-02-28T06:51:43;1.90;75.40
19214;DHT22;9741;51.020;5.304;2024-02-28T06:54:10;1.90;75.50
19214;DHT22;9741;51.020;5.304;2024-02-28T06:56:37;1.90;75.40
19214;DHT22;9741;51.020;5.304;2024-02-28T06:59:05;1.90;75.30
19214;DHT22;9741;51.020;5.304;2024-02-28T07:01:33;1.90;75.40
19214;DHT22;9741;51.020;5.304;2024-02-28T07:04:00;2.00;75.50
19214;DHT22;9741;51.020;5.304;2024-02-28T07:06:27;2.00;75.50
19214;DHT22;9741;51.020;5.304;2024-02-28T07:08:54;2.00;75.60
19214;DHT22;9741;51.020;5.304;2024-02-28T07:11:21;2.00;75.70
19214;DHT22;9741;51.020;5.304;2024-02-28T07:13:48;2.00;75.70
19214;DHT22;9741;51.020;5.304;2024-02-28T07:16:16;2.10;75.70
19214;DHT22;9741;51.020;5.304;2024-02-28T07:18:43;2.10;75.80
19214;DHT22;9741;51.020;5.304;2024-02-28T07:21:10;2.10;75.90
19214;DHT22;9741;51.020;5.304;2024-02-28T07:23:39;2.20;76.00
19214;DHT22;9741;51.020;5.304;2024-02-28T07:26:06;2.30;76.10
19214;DHT22;9741;51.020;5.304;2024-02-28T07:28:33;2.30;76.10
19214;DHT22;9741;51.020;5.304;2024-02-28T07:31:00;2.30;76.10
19214;DHT22;9741;51.020;5.304;2024-02-28T07:33:28;2.40;76.30
19214;DHT22;9741;51.020;5.304;2024-02-28T07:35:55;2.40;76.20
19214;DHT22;9741;51.020;5.304;2024-02-28T07:38:26;2.50;76.40
19214;DHT22;9741;51.020;5.304;2024-02-28T07:40:54;2.60;76.60
19214;DHT22;9741;51.020;5.304;2024-02-28T07:43:21;2.60;76.70
19214;DHT22;9741;51.020;5.304;2024-02-28T07:45:48;2.70;76.70
19214;DHT22;9741;51.020;5.304;2024-02-28T07:48:15;2.80;76.90
19214;DHT22;9741;51.020;5.304;2024-02-28T07:50:44;2.90;76.90
19214;DHT22;9741;51.020;5.304;2024-02-28T07:53:12;3.00;77.00
19214;DHT22;9741;51.020;5.304;2024-02-28T07:55:39;3.10;77.20
19214;DHT22;9741;51.020;5.304;2024-02-28T07:58:06;3.20;77.30
19214;DHT22;9741;51.020;5.304;2024-02-28T08:00:34;3.30;77.20
19214;DHT22;9741;51.020;5.304;2024-02-28T08:03:03;3.40;77.20
19214;DHT22;9741;51.020;5.304;2024-02-28T08:05:30;3.50;77.30
19214;DHT22;9741;51.020;5.304;2024-02-28T08:08:00;3.60;77.40
19214;DHT22;9741;51.020;5.304;2024-02-28T08:10:27;3.80;77.60
19214;DHT22;9741;51.020;5.304;2024-02-28T08:12:54;3.80;77.50
19214;DHT22;9741;51.020;5.304;2024-02-28T08:15:20;4.00;77.70
19214;DHT22;9741;51.020;5.304;2024-02-28T08:17:47;4.10;77.60
19214;DHT22;9741;51.020;5.304;2024-02-28T08:20:14;4.20;77.70
19214;DHT22;9741;51.020;5.304;2024-02-28T08:22:41;4.40;77.80
19214;DHT22;9741;51.020;5.304;2024-02-28T08:25:10;4.50;77.80
19214;DHT22;9741;51.020;5.304;2024-02-28T08:27:37;4.70;77.90
19214;DHT22;9741;51.020;5.304;2024-02-28T08:30:05;4.80;77.50
19214;DHT22;9741;51.020;5.304;2024-02-28T08:32:33;4.90;77.20
19214;DHT22;9741;51.020;5.304;2024-02-28T08:34:59;4.90;77.00
19214;DHT22;9741;51.020;5.304;2024-02-28T08:37:26;5.00;77.40
19214;DHT22;9741;51.020;5.304;2024-02-28T08:39:54;5.20;77.30
19214;DHT22;9741;51.020;5.304;2024-02-28T08:42:24;5.20;77.10
19214;DHT22;9741;51.020;5.304;2024-02-28T08:44:51;5.20;77.10
19214;DHT22;9741;51.020;5.304;2024-02-28T08:47:22;5.30;77.00
19214;DHT22;9741;51.020;5.304;2024-02-28T08:49:50;5.40;77.20
19214;DHT22;9741;51.020;5.304;2024-02-28T08:52:17;5.40;77.20
19214;DHT22;9741;51.020;5.304;2024-02-28T08:54:44;5.50;77.30
19214;DHT22;9741;51.020;5.304;2024-02-28T08:57:10;5.70;77.70
19214;DHT22;9741;51.020;5.304;2024-02-28T08:59:39;5.80;77.70
19214;DHT22;9741;51.020;5.304;2024-02-28T09:02:06;6.00;77.70
19214;DHT22;9741;51.020;5.304;2024-02-28T09:04:33;6.10;77.60
19214;DHT22;9741;51.020;5.304;2024-02-28T09:07:00;6.20;77.60
19214;DHT22;9741;51.020;5.304;2024-02-28T09:09:27;6.30;77.60
19214;DHT22;9741;51.020;5.304;2024-02-28T09:11:55;6.50;77.70
19214;DHT22;9741;51.020;5.304;2024-02-28T09:14:22;6.60;77.70
19214;DHT22;9741;51.020;5.304;2024-02-28T09:16:51;6.80;77.70
19214;DHT22;9741;51.020;5.304;2024-02-28T09:19:19;6.90;77.80
19214;DHT22;9741;51.020;5.304;2024-02-28T09:21:46;7.10;77.90
19214;DHT22;9741;51.020;5.304;2024-02-28T09:24:13;7.30;78.10
19214;DHT22;9741;51.020;5.304;2024-02-28T09:26:40;7.50;77.90
19214;DHT22;9741;51.020;5.304;2024-02-28T09:29:07;7.70;78.00
19214;DHT22;9741;51.020;5.304;2024-02-28T09:31:34;7.90;78.00
19214;DHT22;9741;51.020;5.304;2024-02-28T09:34:03;8.00;77.80
19214;DHT22;9741;51.020;5.304;2024-02-28T09:36:33;8.20;77.80
19214;DHT22;9741;51.020;5.304;2024-02-28T09:39:00;8.30;78.20
19214;DHT22;9741;51.020;5.304;2024-02-28T09:41:27;8.40;77.70
19214;DHT22;9741;51.020;5.304;2024-02-28T09:43:54;8.50;77.70
19214;DHT22;9741;51.020;5.304;2024-02-28T09:46:21;8.50;77.50
19214;DHT22;9741;51.020;5.304;2024-02-28T09:48:49;8.50;77.30
19214;DHT22;9741;51.020;5.304;2024-02-28T09:51:18;8.60;77.40
19214;DHT22;9741;51.020;5.304;2024-02-28T09:53:49;8.60;77.40
19214;DHT22;9741;51.020;5.304;2024-02-28T09:56:16;8.70;77.50
19214;DHT22;9741;51.020;5.304;2024-02-28T09:58:44;8.70;77.60
19214;DHT22;9741;51.020;5.304;2024-02-28T10:01:11;8.80;77.70
19214;DHT22;9741;51.020;5.304;2024-02-28T10:03:40;8.90;77.90
19214;DHT22;9741;51.020;5.304;2024-02-28T10:06:09;9.00;77.80
19214;DHT22;9741;51.020;5.304;2024-02-28T10:08:37;9.10;77.70
19214;DHT22;9741;51.020;5.304;2024-02-28T10:11:05;9.10;77.30
19214;DHT22;9741;51.020;5.304;2024-02-28T10:13:32;9.10;77.20
19214;DHT22;9741;51.020;5.304;2024-02-28T10:15:59;9.20;77.30
19214;DHT22;9741;51.020;5.304;2024-02-28T10:18:26;9.30;77.40
19214;DHT22;9741;51.020;5.304;2024-02-28T10:20:53;9.30;77.40
19214;DHT22;9741;51.020;5.304;2024-02-28T10:23:20;9.40;77.20
19214;DHT22;9741;51.020;5.304;2024-02-28T10:25:49;9.40;77.00
19214;DHT22;9741;51.020;5.304;2024-02-28T10:28:16;9.50;77.10
19214;DHT22;9741;51.020;5.304;2024-02-28T10:30:44;9.60;77.30
19214;DHT22;9741;51.020;5.304;2024-02-28T10:33:11;9.70;77.30
19214;DHT22;9741;51.020;5.304;2024-02-28T10:35:39;9.90;77.20
19214;DHT22;9741;51.020;5.304;2024-02-28T10:38:10;9.90;76.90
19214;DHT22;9741;51.020;5.304;2024-02-28T10:40:37;10.10;75.90
19214;DHT22;9741;51.020;5.304;2024-02-28T10:43:08;10.10;75.70
19214;DHT22;9741;51.020;5.304;2024-02-28T10:45:36;10.20;75.50
19214;DHT22;9741;51.020;5.304;2024-02-28T10:48:04;10.30;75.60
19214;DHT22;9741;51.020;5.304;2024-02-28T10:50:32;10.40;75.60
19214;DHT22;9741;51.020;5.304;2024-02-28T10:53:01;10.60;75.80
19214;DHT22;9741;51.020;5.304;2024-02-28T10:55:33;10.70;75.60
19214;DHT22;9741;51.020;5.304;2024-02-28T10:58:03;10.90;75.50
19214;DHT22;9741;51.020;5.304;2024-02-28T11:00:32;11.00;75.20
19214;DHT22;9741;51.020;5.304;2024-02-28T11:03:00;11.00;74.70
19214;DHT22;9741;51.020;5.304;2024-02-28T11:05:37;11.00;74.70
19214;DHT22;9741;51.020;5.304;2024-02-28T11:08:08;11.00;74.70
19214;DHT22;9741;51.020;5.304;2024-02-28T11:10:39;11.00;74.70
19214;DHT22;9741;51.020;5.304;2024-02-28T11:13:07;11.10;74.80
19214;DHT22;9741;51.020;5.304;2024-02-28T11:15:36;11.20;74.60
19214;DHT22;9741;51.020;5.304;2024-02-28T11:18:10;11.10;74.30
19214;DHT22;9741;51.020;5.304;2024-02-28T11:20:38;11.20;74.40
19214;DHT22;9741;51.020;5.304;2024-02-28T11:23:06;11.30;74.30
19214;DHT22;9741;51.020;5.304;2024-02-28T11:25:34;11.30;74.10
19214;DHT22;9741;51.020;5.304;2024-02-28T11:28:01;11.30;73.90
19214;DHT22;9741;51.020;5.304;2024-02-28T11:30:28;11.30;74.00
19214;DHT22;9741;51.020;5.304;2024-02-28T11:32:57;11.30;74.00
19214;DHT22;9741;51.020;5.304;2024-02-28T11:35:25;11.30;73.90
19214;DHT22;9741;51.020;5.304;2024-02-28T11:37:54;11.40;73.90
19214;DHT22;9741;51.020;5.304;2024-02-28T11:40:23;11.40;73.80
19214;DHT22;9741;51.020;5.304;2024-02-28T11:42:51;11.50;73.80
19214;DHT22;9741;51.020;5.304;2024-02-28T11:45:18;11.50;73.80
19214;DHT22;9741;51.020;5.304;2024-02-28T11:47:45;11.60;73.80
19214;DHT22;9741;51.020;5.304;2024-02-28T11:50:14;11.70;73.80
19214;DHT22;9741;51.020;5.304;2024-02-28T11:52:44;11.70;73.50
19214;DHT22;9741;51.020;5.304;2024-02-28T11:55:11;11.80;73.50
19214;DHT22;9741;51.020;5.304;2024-02-28T11:57:38;11.90;73.40
19214;DHT22;9741;51.020;5.304;2024-02-28T12:00:08;11.90;73.20
19214;DHT22;9741;51.020;5.304;2024-02-28T12:02:38;12.00;73.10
19214;DHT22;9741;51.020;5.304;2024-02-28T12:05:06;12.10;73.10
19214;DHT22;9741;51.020;5.304;2024-02-28T12:07:36;12.10;73.00
19214;DHT22;9741;51.020;5.304;2024-02-28T12:10:04;12.20;73.00
19214;DHT22;9741;51.020;5.304;2024-02-28T12:12:34;12.20;72.70
19214;DHT22;9741;51.020;5.304;2024-02-28T12:15:01;12.20;72.50
19214;DHT22;9741;51.020;5.304;2024-02-28T12:17:31;12.20;72.40
19214;DHT22;9741;51.020;5.304;2024-02-28T12:19:59;12.20;72.30
19214;DHT22;9741;51.020;5.304;2024-02-28T12:22:26;12.20;72.30
19214;DHT22;9741;51.020;5.304;2024-02-28T12:24:54;12.30;72.30
19214;DHT22;9741;51.020;5.304;2024-02-28T12:27:21;12.40;72.30
19214;DHT22;9741;51.020;5.304;2024-02-28T12:29:48;12.50;72.30
19214;DHT22;9741;51.020;5.304;2024-02-28T12:32:15;12.60;72.10
19214;DHT22;9741;51.020;5.304;2024-02-28T12:34:43;12.60;71.90
19214;DHT22;9741;51.020;5.304;2024-02-28T12:37:10;12.70;71.70
19214;DHT22;9741;51.020;5.304;2024-02-28T12:39:37;12.70;71.50
19214;DHT22;9741;51.020;5.304;2024-02-28T12:42:07;12.70;71.40
19214;DHT22;9741;51.020;5.304;2024-02-28T12:44:34;12.80;71.40
19214;DHT22;9741;51.020;5.304;2024-02-28T12:47:01;12.80;71.20
19214;DHT22;9741;51.020;5.304;2024-02-28T12:49:28;12.90;71.10
19214;DHT22;9741;51.020;5.304;2024-02-28T12:51:55;13.00;71.10
19214;DHT22;9741;51.020;5.304;2024-02-28T12:54:22;13.10;70.90
19214;DHT22;9741;51.020;5.304;2024-02-28T12:56:50;13.20;70.70
19214;DHT22;9741;51.020;5.304;2024-02-28T12:59:18;13.30;70.50
19214;DHT22;9741;51.020;5.304;2024-02-28T13:01:45;13.30;70.20
19214;DHT22;9741;51.020;5.304;2024-02-28T13:04:13;13.20;70.00
19214;DHT22;9741;51.020;5.304;2024-02-28T13:06:41;13.20;70.00
19214;DHT22;9741;51.020;5.304;2024-02-28T13:09:08;13.20;70.10
19214;DHT22;9741;51.020;5.304;2024-02-28T13:11:38;13.30;70.20
19214;DHT22;9741;51.020;5.304;2024-02-28T13:14:05;13.30;70.00
19214;DHT22;9741;51.020;5.304;2024-02-28T13:16:35;13.30;69.90
19214;DHT22;9741;51.020;5.304;2024-02-28T13:19:03;13.40;69.80
19214;DHT22;9741;51.020;5.304;2024-02-28T13:21:31;13.40;69.70
19214;DHT22;9741;51.020;5.304;2024-02-28T13:24:00;13.40;69.60
19214;DHT22;9741;51.020;5.304;2024-02-28T13:26:26;13.40;69.60
19214;DHT22;9741;51.020;5.304;2024-02-28T13:28:53;13.40;69.50
19214;DHT22;9741;51.020;5.304;2024-02-28T13:31:20;13.50;69.60
19214;DHT22;9741;51.020;5.304;2024-02-28T13:33:49;13.60;69.70
19214;DHT22;9741;51.020;5.304;2024-02-28T13:36:15;13.70;69.60
19214;DHT22;9741;51.020;5.304;2024-02-28T13:38:42;13.80;69.40
19214;DHT22;9741;51.020;5.304;2024-02-28T13:41:10;13.80;69.10
19214;DHT22;9741;51.020;5.304;2024-02-28T13:43:37;13.90;69.00
19214;DHT22;9741;51.020;5.304;2024-02-28T13:46:04;13.90;68.90
19214;DHT22;9741;51.020;5.304;2024-02-28T13:48:31;13.80;68.70
19214;DHT22;9741;51.020;5.304;2024-02-28T13:51:00;13.80;68.70
19214;DHT22;9741;51.020;5.304;2024-02-28T13:53:28;13.80;68.70
19214;DHT22;9741;51.020;5.304;2024-02-28T13:55:55;13.70;68.60
19214;DHT22;9741;51.020;5.304;2024-02-28T13:58:22;13.70;68.70
19214;DHT22;9741;51.020;5.304;2024-02-28T14:00:49;13.70;68.60
19214;DHT22;9741;51.020;5.304;2024-02-28T14:03:16;13.80;68.60
19214;DHT22;9741;51.020;5.304;2024-02-28T14:05:42;13.80;68.50
19214;DHT22;9741;51.020;5.304;2024-02-28T14:08:10;13.90;68.50
19214;DHT22;9741;51.020;5.304;2024-02-28T14:10:38;14.00;68.40
19214;DHT22;9741;51.020;5.304;2024-02-28T14:13:05;14.00;68.20
19214;DHT22;9741;51.020;5.304;2024-02-28T14:15:32;14.10;68.10
19214;DHT22;9741;51.020;5.304;2024-02-28T14:18:02;14.00;67.70
19214;DHT22;9741;51.020;5.304;2024-02-28T14:20:30;13.90;67.60
19214;DHT22;9741;51.020;5.304;2024-02-28T14:22:57;13.80;67.50
19214;DHT22;9741;51.020;5.304;2024-02-28T14:25:25;13.60;67.30
19214;DHT22;9741;51.020;5.304;2024-02-28T14:27:53;13.50;67.40
19214;DHT22;9741;51.020;5.304;2024-02-28T14:30:21;13.40;67.30
19214;DHT22;9741;51.020;5.304;2024-02-28T14:32:49;13.30;67.30
19214;DHT22;9741;51.020;5.304;2024-02-28T14:35:16;13.20;67.30
19214;DHT22;9741;51.020;5.304;2024-02-28T14:37:44;13.10;67.30
19214;DHT22;9741;51.020;5.304;2024-02-28T14:40:11;13.00;67.30
19214;DHT22;9741;51.020;5.304;2024-02-28T14:42:41;13.00;67.50
19214;DHT22;9741;51.020;5.304;2024-02-28T14:45:11;12.90;67.40
19214;DHT22;9741;51.020;5.304;2024-02-28T14:47:38;12.90;67.60
19214;DHT22;9741;51.020;5.304;2024-02-28T14:50:06;12.90;67.60
19214;DHT22;9741;51.020;5.304;2024-02-28T14:52:35;12.80;67.60
19214;DHT22;9741;51.020;5.304;2024-02-28T14:55:04;12.80;67.60
19214;DHT22;9741;51.020;5.304;2024-02-28T14:57:31;12.80;67.80
19214;DHT22;9741;51.020;5.304;2024-02-28T14:59:59;12.70;67.70
19214;DHT22;9741;51.020;5.304;2024-02-28T15:02:31;12.70;67.80
19214;DHT22;9741;51.020;5.304;2024-02-28T15:04:58;12.70;67.80
19214;DHT22;9741;51.020;5.304;2024-02-28T15:07:25;12.70;67.90
19214;DHT22;9741;51.020;5.304;2024-02-28T15:09:52;12.70;67.90
19214;DHT22;9741;51.020;5.304;2024-02-28T15:12:23;12.80;68.10
19214;DHT22;9741;51.020;5.304;2024-02-28T15:14:50;12.90;68.10
19214;DHT22;9741;51.020;5.304;2024-02-28T15:17:18;13.00;68.10
19214;DHT22;9741;51.020;5.304;2024-02-28T15:19:45;13.00;67.90
19214;DHT22;9741;51.020;5.304;2024-02-28T15:22:13;13.00;67.80
19214;DHT22;9741;51.020;5.304;2024-02-28T15:24:40;13.00;67.70
19214;DHT22;9741;51.020;5.304;2024-02-28T15:27:07;13.00;67.70
19214;DHT22;9741;51.020;5.304;2024-02-28T15:29:34;13.00;67.60
19214;DHT22;9741;51.020;5.304;2024-02-28T15:32:01;13.00;67.50
19214;DHT22;9741;51.020;5.304;2024-02-28T15:34:29;13.00;67.40
19214;DHT22;9741;51.020;5.304;2024-02-28T15:36:56;13.00;67.20
19214;DHT22;9741;51.020;5.304;2024-02-28T15:39:24;12.90;67.20
19214;DHT22;9741;51.020;5.304;2024-02-28T15:41:51;12.90;67.30
19214;DHT22;9741;51.020;5.304;2024-02-28T15:44:18;13.00;67.50
19214;DHT22;9741;51.020;5.304;2024-02-28T15:46:45;13.00;67.50
19214;DHT22;9741;51.020;5.304;2024-02-28T15:49:12;13.00;67.40
19214;DHT22;9741;51.020;5.304;2024-02-28T15:51:40;13.00;67.30
19214;DHT22;9741;51.020;5.304;2024-02-28T15:54:07;13.00;67.30
19214;DHT22;9741;51.020;5.304;2024-02-28T15:56:34;13.00;67.00
19214;DHT22;9741;51.020;5.304;2024-02-28T15:59:02;12.90;66.80